Time;durP1;ratioP1;P1;durP2;ratioP2;P2;SDS_P1;SDS_P2;PMS_P1;PMS_P2;Temp;Humidity;BMP_temperature;BMP_pressure;BME280_temperature;BME280_humidity;BME280_pressure;Samples;Min_cycle;Max_cycle;Signal;HPM_P1;HPM_P2
2022/05/08 00:01:17;;;;;;;14.85;4.68;;;7.20;99.90;;;;;;5055102;28;20109;-46
2022/05/08 00:03:43;;;;;;;14.63;4.90;;;7.20;99.90;;;;;;5052719;28;20152;-46
2022/05/08 00:06:11;;;;;;;10.77;4.45;;;7.20;99.90;;;;;;5050608;28;20177;-47
2022/05/08 00:08:40;;;;;;;13.75;4.53;;;7.20;99.90;;;;;;5052269;28;20070;-51
2022/05/08 00:11:06;;;;;;;12.23;4.45;;;7.10;99.90;;;;;;5056217;28;20078;-50
2022/05/08 00:13:32;;;;;;;11.63;3.80;;;7.00;99.90;;;;;;5049301;28;20132;-46
2022/05/08 00:15:59;;;;;;;12.40;4.60;;;7.00;99.90;;;;;;5037520;28;20135;-45
2022/05/08 00:18:26;;;;;;;19.35;5.00;;;7.00;99.90;;;;;;5019716;28;20052;-46
2022/05/08 00:20:52;;;;;;;16.95;5.13;;;7.00;99.90;;;;;;5056006;28;20546;-48
2022/05/08 00:23:17;;;;;;;21.60;4.53;;;7.00;99.90;;;;;;5037151;28;20135;-45
2022/05/08 00:25:43;;;;;;;16.67;4.72;;;6.90;99.90;;;;;;5056232;28;20388;-47
2022/05/08 00:28:09;;;;;;;26.52;6.20;;;6.90;99.90;;;;;;5028103;28;20045;-46
2022/05/08 00:30:36;;;;;;;22.88;5.07;;;6.90;99.90;;;;;;5055889;28;20415;-46
2022/05/08 00:33:01;;;;;;;24.33;5.80;;;6.90;99.90;;;;;;5029995;28;20082;-47
2022/05/08 00:35:27;;;;;;;19.00;4.80;;;6.90;99.90;;;;;;5054123;28;20054;-47
2022/05/08 00:37:53;;;;;;;17.90;4.95;;;6.90;99.90;;;;;;5036418;28;20628;-45
2022/05/08 00:40:19;;;;;;;25.08;5.90;;;6.90;99.90;;;;;;5029638;28;20052;-47
2022/05/08 00:42:44;;;;;;;19.65;4.43;;;6.80;99.90;;;;;;5037911;28;20049;-47
2022/05/08 00:45:10;;;;;;;13.98;4.78;;;6.80;99.90;;;;;;5061214;28;20136;-46
2022/05/08 00:47:36;;;;;;;19.77;4.75;;;6.80;99.90;;;;;;5040309;28;20080;-46
2022/05/08 00:50:04;;;;;;;17.83;4.78;;;6.80;99.90;;;;;;5030822;28;20132;-44
2022/05/08 00:52:30;;;;;;;21.30;5.68;;;6.70;99.90;;;;;;5063289;28;20105;-46
2022/05/08 00:54:56;;;;;;;23.60;5.30;;;6.70;99.90;;;;;;5063931;28;20048;-46
2022/05/08 00:57:22;;;;;;;21.60;5.15;;;6.70;99.90;;;;;;5057368;28;20040;-46
2022/05/08 00:59:48;;;;;;;22.35;4.95;;;6.60;99.90;;;;;;5039857;28;20596;-47
2022/05/08 01:02:14;;;;;;;19.75;5.03;;;6.70;99.90;;;;;;5064353;28;20127;-48
2022/05/08 01:04:40;;;;;;;15.48;4.57;;;6.60;99.90;;;;;;5060225;28;20049;-48
2022/05/08 01:07:05;;;;;;;16.15;4.95;;;6.60;99.90;;;;;;5054541;28;20094;-48
2022/05/08 01:09:31;;;;;;;19.35;5.57;;;6.60;99.90;;;;;;5055032;28;20044;-46
2022/05/08 01:11:57;;;;;;;15.95;4.72;;;6.60;99.90;;;;;;5063720;28;20036;-46
2022/05/08 01:14:23;;;;;;;19.15;5.35;;;6.60;99.90;;;;;;5045619;28;20495;-47
2022/05/08 01:16:48;;;;;;;23.13;5.05;;;6.50;99.90;;;;;;5053551;28;20082;-47
2022/05/08 01:19:15;;;;;;;21.27;5.32;;;6.60;99.90;;;;;;5063688;28;20055;-46
2022/05/08 01:21:42;;;;;;;14.05;3.85;;;6.50;99.90;;;;;;5062752;28;20548;-48
2022/05/08 01:24:15;;;;;;;21.23;5.47;;;6.50;99.90;;;;;;5052098;28;20692;-50
2022/05/08 01:26:42;;;;;;;15.27;4.50;;;6.40;99.90;;;;;;5059303;28;20048;-50
2022/05/08 01:29:08;;;;;;;20.50;5.20;;;6.40;99.90;;;;;;5057720;28;20155;-47
2022/05/08 01:31:34;;;;;;;17.55;5.43;;;6.40;99.90;;;;;;5030786;28;20539;-46
2022/05/08 01:34:00;;;;;;;18.70;5.80;;;6.40;99.90;;;;;;5039731;28;20056;-48
2022/05/08 01:36:26;;;;;;;20.25;5.15;;;6.40;99.90;;;;;;5062206;28;20105;-45
2022/05/08 01:38:52;;;;;;;24.17;6.03;;;6.40;99.90;;;;;;5062792;28;20055;-46
2022/05/08 01:41:17;;;;;;;27.75;5.40;;;6.40;99.90;;;;;;5059813;28;20076;-44
2022/05/08 01:43:43;;;;;;;18.38;5.28;;;6.30;99.90;;;;;;5062112;28;20494;-46
2022/05/08 01:46:10;;;;;;;19.52;5.65;;;6.30;99.90;;;;;;5061347;28;20087;-46
2022/05/08 01:48:36;;;;;;;22.00;6.15;;;6.20;99.90;;;;;;5058906;28;20530;-47
2022/05/08 01:51:06;;;;;;;21.52;5.13;;;6.20;99.90;;;;;;5034631;28;20059;-44
2022/05/08 01:53:35;;;;;;;19.73;4.93;;;6.10;99.90;;;;;;5037999;28;20048;-45
2022/05/08 01:56:08;;;;;;;25.67;5.82;;;6.10;99.90;;;;;;5056001;28;20147;-46
2022/05/08 01:58:34;;;;;;;12.98;4.85;;;6.00;99.90;;;;;;5039716;28;20476;-46
2022/05/08 02:01:02;;;;;;;21.20;5.03;;;6.10;99.90;;;;;;5058154;28;20048;-46
2022/05/08 02:03:28;;;;;;;16.85;4.63;;;6.10;99.90;;;;;;5045491;28;20159;-49
2022/05/08 02:05:54;;;;;;;18.30;4.78;;;6.00;99.90;;;;;;5043444;28;20553;-43
2022/05/08 02:08:20;;;;;;;21.02;5.57;;;6.00;99.90;;;;;;5043096;28;20052;-45
2022/05/08 02:10:45;;;;;;;18.55;5.22;;;6.00;99.90;;;;;;5060401;28;20048;-48
2022/05/08 02:13:12;;;;;;;18.08;4.85;;;6.00;99.90;;;;;;5046054;28;20072;-46
2022/05/08 02:15:40;;;;;;;19.63;4.95;;;6.00;99.90;;;;;;5059145;28;20060;-46
2022/05/08 02:18:08;;;;;;;20.88;5.03;;;6.00;99.90;;;;;;5054287;28;20582;-46
2022/05/08 02:20:41;;;;;;;17.48;5.43;;;6.00;99.90;;;;;;5040091;28;20040;-48
2022/05/08 02:23:08;;;;;;;21.53;5.27;;;6.00;99.90;;;;;;5052024;28;20052;-46
2022/05/08 02:25:33;;;;;;;15.70;5.32;;;6.00;99.90;;;;;;5054218;28;20507;-46
2022/05/08 02:28:00;;;;;;;19.80;4.82;;;5.90;99.90;;;;;;5053711;28;20045;-45
2022/05/08 02:30:26;;;;;;;16.23;5.35;;;5.80;99.90;;;;;;5037570;28;20108;-45
2022/05/08 02:32:53;;;;;;;14.40;5.85;;;5.80;99.90;;;;;;5036543;28;20060;-46
2022/05/08 02:35:23;;;;;;;17.83;5.22;;;5.80;99.90;;;;;;5038041;28;20127;-45
2022/05/08 02:37:52;;;;;;;19.88;5.18;;;5.80;99.90;;;;;;5053532;28;20065;-46
2022/05/08 02:40:20;;;;;;;18.92;5.60;;;5.70;99.90;;;;;;5076253;28;20192;-46
2022/05/08 02:42:45;;;;;;;14.45;4.10;;;5.70;99.90;;;;;;5078109;28;20113;-52
2022/05/08 02:45:12;;;;;;;13.65;4.32;;;5.70;99.90;;;;;;5081757;28;20406;-48
2022/05/08 02:47:38;;;;;;;9.73;3.97;;;5.70;99.90;;;;;;5078934;28;20048;-44
2022/05/08 02:50:05;;;;;;;15.95;5.00;;;5.70;99.90;;;;;;5075379;28;20091;-46
2022/05/08 02:52:32;;;;;;;12.85;5.00;;;5.70;99.90;;;;;;5063117;28;20886;-48
2022/05/08 02:58:32;;;;;;;18.17;4.95;;;5.70;99.90;;;;;;5076114;28;20105;-46
2022/05/08 03:00:39;;;;;;;12.68;4.43;;;5.70;99.90;;;;;;5071468;28;20042;-46
2022/05/08 03:03:06;;;;;;;12.38;5.03;;;5.70;99.90;;;;;;5075308;28;20060;-46
2022/05/08 03:05:33;;;;;;;14.70;4.45;;;5.70;99.90;;;;;;5063605;28;20051;-43
2022/05/08 03:07:59;;;;;;;16.42;5.25;;;5.60;99.90;;;;;;5079501;28;20044;-46
2022/05/08 03:10:25;;;;;;;17.23;5.13;;;5.70;99.90;;;;;;5074007;28;20066;-47
2022/05/08 03:12:50;;;;;;;11.20;4.68;;;5.70;99.90;;;;;;5079778;28;20501;-46
2022/05/08 03:15:17;;;;;;;16.15;5.75;;;5.70;99.90;;;;;;5076558;28;20055;-47
2022/05/08 03:17:42;;;;;;;17.45;4.90;;;5.70;99.90;;;;;;5071388;28;20627;-47
2022/05/08 03:20:10;;;;;;;22.40;5.95;;;5.60;99.90;;;;;;5071444;28;20052;-47
2022/05/08 03:22:36;;;;;;;18.17;4.50;;;5.60;99.90;;;;;;5075341;28;20086;-46
2022/05/08 03:25:01;;;;;;;16.83;5.80;;;5.60;99.90;;;;;;5071145;28;20489;-48
2022/05/08 03:27:28;;;;;;;15.50;4.80;;;5.60;99.90;;;;;;5076080;28;20075;-47
2022/05/08 03:29:53;;;;;;;18.40;4.85;;;5.50;99.90;;;;;;5070297;28;20088;-47
2022/05/08 03:32:19;;;;;;;14.95;4.97;;;5.50;99.90;;;;;;5062528;28;20144;-45
2022/05/08 03:34:45;;;;;;;17.42;5.13;;;5.50;99.90;;;;;;5075885;28;20573;-45
2022/05/08 03:37:11;;;;;;;14.15;4.93;;;5.50;99.90;;;;;;5074998;28;20558;-45
2022/05/08 03:39:36;;;;;;;21.15;4.90;;;5.50;99.90;;;;;;5070151;28;20309;-45
2022/05/08 03:42:03;;;;;;;13.18;4.35;;;5.50;99.90;;;;;;5077928;28;20055;-46
2022/05/08 03:44:28;;;;;;;17.05;4.70;;;5.50;99.90;;;;;;5073203;28;20049;-46
2022/05/08 03:46:54;;;;;;;13.85;5.47;;;5.50;99.90;;;;;;5077462;28;20495;-45
2022/05/08 03:49:20;;;;;;;17.63;4.40;;;5.50;99.90;;;;;;5073747;28;20364;-47
2022/05/08 03:51:46;;;;;;;18.55;5.18;;;5.50;99.90;;;;;;5069049;28;20172;-46
2022/05/08 03:54:14;;;;;;;18.15;5.30;;;5.50;99.90;;;;;;5072911;28;20048;-47
2022/05/08 03:56:40;;;;;;;18.95;5.20;;;5.50;99.90;;;;;;5077584;28;20054;-47
2022/05/08 03:59:06;;;;;;;14.68;4.35;;;5.50;99.90;;;;;;5071602;28;20036;-48
2022/05/08 04:01:31;;;;;;;14.45;4.63;;;5.60;99.90;;;;;;5076748;28;20047;-48
2022/05/08 04:03:59;;;;;;;12.50;4.05;;;5.60;99.90;;;;;;5075048;28;20356;-46
2022/05/08 04:06:24;;;;;;;17.55;5.18;;;5.70;99.90;;;;;;5068557;28;20055;-47
2022/05/08 04:08:52;;;;;;;20.02;5.22;;;5.70;99.90;;;;;;5071442;28;20040;-45
2022/05/08 04:11:19;;;;;;;16.13;4.60;;;5.80;99.90;;;;;;5067265;28;20384;-46
2022/05/08 04:13:45;;;;;;;17.88;4.82;;;5.90;99.90;;;;;;5074117;28;20051;-46
2022/05/08 04:16:16;;;;;;;12.45;4.53;;;5.90;99.90;;;;;;5074612;28;20044;-46
2022/05/08 04:18:43;;;;;;;15.98;4.72;;;6.00;99.90;;;;;;5078801;28;20917;-46
2022/05/08 04:21:08;;;;;;;19.35;5.05;;;6.10;99.90;;;;;;5078745;28;20099;-46
2022/05/08 04:26:19;;;;;;;12.73;4.57;;;6.30;99.90;;;;;;5079821;28;20058;-47
2022/05/08 04:28:44;;;;;;;16.38;4.32;;;6.40;99.90;;;;;;5079936;28;20047;-47
2022/05/08 04:31:10;;;;;;;18.73;5.07;;;6.50;99.90;;;;;;5080313;28;20487;-45
2022/05/08 04:33:36;;;;;;;19.02;5.15;;;6.70;99.90;;;;;;5079000;28;20040;-45
2022/05/08 04:36:02;;;;;;;13.50;4.40;;;6.80;99.90;;;;;;5079704;28;20070;-47
2022/05/08 04:38:28;;;;;;;15.65;4.47;;;6.90;99.90;;;;;;5078569;28;20529;-47
2022/05/08 04:40:54;;;;;;;16.90;4.85;;;7.00;99.90;;;;;;5081340;28;20048;-47
2022/05/08 04:43:19;;;;;;;18.48;4.63;;;7.30;99.90;;;;;;5079537;28;20080;-45
2022/05/08 04:45:45;;;;;;;13.90;4.13;;;7.50;99.90;;;;;;5078144;28;20066;-46
2022/05/08 04:48:10;;;;;;;14.90;5.88;;;7.50;99.90;;;;;;5069323;28;20428;-48
2022/05/08 04:50:37;;;;;;;19.55;5.75;;;7.60;99.90;;;;;;5064906;28;20056;-47
2022/05/08 04:53:04;;;;;;;16.15;4.50;;;8.20;99.90;;;;;;5078626;28;20086;-45
2022/05/08 04:55:30;;;;;;;12.35;4.47;;;9.20;99.90;;;;;;5073234;28;20047;-48
2022/05/08 04:57:56;;;;;;;15.82;4.35;;;10.20;99.90;;;;;;5067774;28;20512;-46
2022/05/08 05:00:22;;;;;;;12.07;3.90;;;11.20;99.90;;;;;;5079312;28;20040;-48
2022/05/08 05:02:47;;;;;;;14.15;4.30;;;11.80;99.90;;;;;;5066984;28;20579;-51
2022/05/08 05:05:13;;;;;;;11.38;3.65;;;12.40;99.90;;;;;;5074172;28;20040;-49
2022/05/08 05:07:40;;;;;;;10.43;3.50;;;13.20;99.90;;;;;;5074517;28;20129;-49
2022/05/08 05:10:08;;;;;;;10.30;3.67;;;14.00;99.90;;;;;;5079077;28;20038;-48
2022/05/08 05:12:38;;;;;;;10.70;3.47;;;14.80;99.90;;;;;;5076454;28;20485;-50
2022/05/08 05:15:05;;;;;;;12.18;2.88;;;15.40;99.90;;;;;;5071737;28;20051;-51
2022/05/08 05:17:31;;;;;;;15.60;3.88;;;15.90;99.90;;;;;;5073537;28;20063;-49
2022/05/08 05:19:57;;;;;;;7.95;2.83;;;16.60;99.90;;;;;;5072258;28;20094;-51
2022/05/08 05:22:26;;;;;;;7.65;2.65;;;17.20;99.90;;;;;;5072292;28;20044;-51
2022/05/08 05:24:55;;;;;;;8.50;3.47;;;17.70;99.80;;;;;;5058416;28;20095;-51
2022/05/08 05:27:21;;;;;;;10.63;3.67;;;18.10;97.80;;;;;;5068381;28;20048;-49
2022/05/08 05:29:47;;;;;;;9.30;3.20;;;18.50;98.60;;;;;;5058402;28;20053;-51
2022/05/08 05:32:13;;;;;;;8.68;2.72;;;18.30;95.40;;;;;;5070783;28;20571;-49
2022/05/08 05:34:39;;;;;;;6.60;2.60;;;18.40;95.80;;;;;;5077826;28;20040;-49
2022/05/08 05:37:06;;;;;;;9.85;3.25;;;18.80;96.40;;;;;;5073970;28;20109;-50
2022/05/08 05:39:32;;;;;;;10.18;3.17;;;19.30;95.70;;;;;;5074761;28;20048;-52
2022/05/08 05:41:57;;;;;;;15.95;3.22;;;19.40;93.60;;;;;;5080237;28;20032;-50
2022/05/08 05:44:23;;;;;;;13.43;2.80;;;19.40;92.80;;;;;;5077278;28;20059;-49
2022/05/08 05:49:33;;;;;;;8.98;2.67;;;19.70;92.40;;;;;;5074639;28;20056;-48
2022/05/08 05:51:59;;;;;;;8.68;2.83;;;20.10;91.90;;;;;;5063501;28;20363;-53
2022/05/08 05:54:28;;;;;;;8.40;2.72;;;20.80;91.70;;;;;;5074379;28;20052;-54
2022/05/08 05:56:54;;;;;;;8.65;3.03;;;21.00;88.40;;;;;;5073026;28;20488;-51
2022/05/08 05:59:20;;;;;;;7.50;2.33;;;20.90;88.80;;;;;;5076431;28;20123;-47
2022/05/08 06:01:46;;;;;;;7.82;2.95;;;20.90;88.40;;;;;;5078124;28;20070;-47
2022/05/08 06:04:12;;;;;;;6.70;2.85;;;21.10;87.50;;;;;;5065456;28;20459;-49
2022/05/08 06:06:38;;;;;;;8.98;2.60;;;21.10;85.20;;;;;;5071429;28;20057;-51
2022/05/08 06:09:04;;;;;;;8.02;2.53;;;21.10;87.00;;;;;;5067488;28;20189;-54
2022/05/08 06:11:29;;;;;;;8.63;3.30;;;21.10;84.90;;;;;;5072994;28;20040;-47
2022/05/08 06:13:55;;;;;;;6.13;2.50;;;20.70;85.70;;;;;;5074757;28;20048;-52
2022/05/08 06:16:21;;;;;;;7.85;2.85;;;21.40;87.30;;;;;;5082947;28;20514;-49
2022/05/08 06:18:46;;;;;;;9.05;2.72;;;21.00;83.50;;;;;;5075529;28;20122;-51
2022/05/08 06:21:12;;;;;;;6.55;2.17;;;21.20;83.80;;;;;;5079422;28;20047;-53
2022/05/08 06:23:38;;;;;;;7.47;2.70;;;21.50;82.20;;;;;;5077439;28;20069;-53
2022/05/08 06:26:04;;;;;;;7.82;2.15;;;22.00;83.60;;;;;;5074605;28;20592;-51
2022/05/08 06:28:30;;;;;;;10.75;2.67;;;21.80;81.60;;;;;;5074633;28;20055;-50
2022/05/08 06:30:57;;;;;;;4.97;2.30;;;23.10;82.30;;;;;;5075654;28;20087;-52
2022/05/08 06:33:23;;;;;;;7.97;2.42;;;22.70;80.70;;;;;;5074315;28;20770;-52
2022/05/08 06:35:48;;;;;;;9.18;2.92;;;22.90;77.50;;;;;;5078369;28;20044;-52
2022/05/08 06:38:14;;;;;;;6.90;2.67;;;22.50;78.70;;;;;;5067264;28;20039;-52
2022/05/08 06:40:45;;;;;;;14.30;5.75;;;22.70;78.20;;;;;;5072099;28;20062;-51
2022/05/08 06:43:11;;;;;;;20.65;8.43;;;22.00;74.60;;;;;;5075611;28;20057;-52
2022/05/08 06:45:36;;;;;;;10.05;3.40;;;20.10;77.00;;;;;;5077741;28;20516;-53
2022/05/08 06:48:04;;;;;;;10.38;2.33;;;20.00;81.90;;;;;;5075620;28;20117;-47
2022/05/08 06:50:30;;;;;;;10.55;3.00;;;20.40;79.20;;;;;;5068718;28;20406;-50
2022/05/08 06:52:56;;;;;;;9.15;2.40;;;21.00;79.60;;;;;;5068097;28;20087;-49
2022/05/08 06:55:21;;;;;;;9.18;2.42;;;21.10;78.20;;;;;;5075877;28;20597;-53
2022/05/08 06:57:47;;;;;;;21.67;3.58;;;21.40;78.10;;;;;;5072791;28;20494;-53
2022/05/08 07:02:58;;;;;;;12.48;2.58;;;20.00;78.90;;;;;;5069790;28;20055;-50
2022/05/08 07:05:24;;;;;;;6.55;2.83;;;18.90;80.90;;;;;;5071359;28;20049;-47
2022/05/08 07:07:49;;;;;;;7.30;2.67;;;17.80;83.00;;;;;;5071558;28;20044;-48
2022/05/08 07:10:15;;;;;;;8.90;2.47;;;17.50;85.00;;;;;;5064787;28;20059;-52
2022/05/08 07:12:41;;;;;;;6.00;2.35;;;16.90;86.60;;;;;;5078788;28;20047;-49
2022/05/08 07:15:07;;;;;;;12.45;2.55;;;16.90;88.50;;;;;;5076354;28;20051;-51
2022/05/08 07:17:33;;;;;;;9.95;2.65;;;16.50;89.40;;;;;;5073505;28;20169;-50
2022/05/08 07:19:58;;;;;;;5.93;2.25;;;16.80;89.40;;;;;;5064008;28;20044;-54
2022/05/08 07:22:24;;;;;;;9.25;3.00;;;16.80;88.00;;;;;;5077384;28;20052;-49
2022/05/08 07:24:50;;;;;;;11.40;2.78;;;16.70;87.60;;;;;;5071937;28;20052;-48
2022/05/08 07:27:16;;;;;;;8.70;2.45;;;16.00;88.20;;;;;;5070739;28;20060;-52
2022/05/08 07:29:42;;;;;;;8.23;2.90;;;16.10;90.20;;;;;;5072299;28;20076;-51
2022/05/08 07:32:08;;;;;;;6.53;2.47;;;16.00;90.90;;;;;;5076521;28;20048;-49
2022/05/08 07:37:19;;;;;;;10.30;2.30;;;15.40;91.00;;;;;;5079645;28;20140;-54
2022/05/08 07:39:44;;;;;;;11.35;2.67;;;15.40;91.20;;;;;;5071879;28;20052;-50
2022/05/08 07:42:10;;;;;;;6.60;2.08;;;15.00;90.50;;;;;;5070251;28;20044;-52
2022/05/08 07:44:36;;;;;;;8.25;2.53;;;14.70;91.50;;;;;;5067074;28;20048;-50
2022/05/08 07:47:02;;;;;;;10.48;3.15;;;14.30;92.40;;;;;;5073215;28;20074;-52
2022/05/08 07:49:28;;;;;;;9.98;2.97;;;14.50;92.80;;;;;;5074196;28;20035;-49
2022/05/08 07:51:53;;;;;;;10.68;2.47;;;14.80;92.80;;;;;;5071491;28;20040;-52
2022/05/08 07:54:19;;;;;;;13.77;3.08;;;14.40;92.50;;;;;;5073737;28;20045;-48
2022/05/08 07:56:45;;;;;;;11.80;2.92;;;14.10;94.00;;;;;;5074459;28;20409;-49
2022/05/08 07:59:11;;;;;;;10.80;2.72;;;14.00;94.50;;;;;;5070726;28;20573;-51
2022/05/08 08:01:36;;;;;;;9.90;2.72;;;13.70;94.50;;;;;;5074431;28;20467;-50
2022/05/08 08:04:04;;;;;;;11.18;2.60;;;13.70;94.40;;;;;;5074554;28;20117;-46
2022/05/08 08:06:31;;;;;;;11.13;2.92;;;13.60;94.30;;;;;;5071949;28;20376;-46
2022/05/08 08:08:57;;;;;;;10.07;2.50;;;13.50;94.60;;;;;;5070864;28;20056;-45
2022/05/08 08:11:23;;;;;;;9.80;2.55;;;13.60;95.60;;;;;;5068997;28;20134;-49
2022/05/08 08:13:49;;;;;;;13.25;4.35;;;13.50;96.50;;;;;;5070740;28;20387;-49
2022/05/08 08:16:15;;;;;;;13.00;2.97;;;13.50;97.70;;;;;;5067358;28;20048;-49
2022/05/08 08:18:43;;;;;;;7.68;2.20;;;13.90;97.20;;;;;;5058027;28;20475;-49
2022/05/08 08:21:11;;;;;;;11.07;2.80;;;14.20;95.90;;;;;;5080742;28;20119;-51
2022/05/08 08:23:38;;;;;;;9.68;2.15;;;14.70;95.60;;;;;;5066439;28;20097;-48
2022/05/08 08:26:04;;;;;;;9.00;2.50;;;15.00;95.10;;;;;;5074025;28;20059;-48
2022/05/08 08:28:33;;;;;;;14.50;3.33;;;15.50;95.00;;;;;;5075885;28;20093;-50
2022/05/08 08:30:59;;;;;;;11.48;2.80;;;15.40;94.90;;;;;;5074200;28;20044;-49
2022/05/08 08:33:26;;;;;;;10.18;2.33;;;15.80;94.60;;;;;;5073932;28;20052;-49
2022/05/08 08:35:52;;;;;;;10.23;2.40;;;15.80;93.20;;;;;;5075820;28;20549;-45
2022/05/08 08:38:18;;;;;;;10.07;2.17;;;15.70;92.60;;;;;;5070482;28;20056;-47
2022/05/08 08:40:49;;;;;;;11.15;2.05;;;15.80;92.70;;;;;;5076762;28;20070;-51
2022/05/08 08:43:19;;;;;;;8.68;2.80;;;15.70;93.60;;;;;;5077033;28;20466;-48
2022/05/08 08:48:32;;;;;;;8.00;3.47;;;14.90;92.40;;;;;;5068937;28;20051;-49
2022/05/08 08:50:59;;;;;;;11.98;2.60;;;14.70;93.80;;;;;;5064280;28;20056;-48
2022/05/08 08:53:26;;;;;;;10.05;2.80;;;14.80;94.30;;;;;;5080577;28;20147;-49
2022/05/08 08:55:53;;;;;;;11.68;3.10;;;14.90;94.40;;;;;;5072364;28;20125;-51
2022/05/08 08:58:19;;;;;;;9.45;2.47;;;15.30;94.70;;;;;;5069128;28;20414;-52
2022/05/08 09:00:46;;;;;;;9.75;2.50;;;15.30;93.20;;;;;;5073723;28;20063;-50
2022/05/08 09:03:18;;;;;;;10.82;2.35;;;15.40;93.70;;;;;;5077622;28;20044;-48
2022/05/08 09:05:45;;;;;;;12.73;2.83;;;15.40;94.20;;;;;;5075396;28;20049;-51
2022/05/08 09:08:29;;;;;;;10.70;2.88;;;15.40;93.20;;;;;;5071363;28;20458;-49
2022/05/08 09:10:56;;;;;;;;;;;15.20;92.30;;;;;;5076985;28;20286;-50
2022/05/08 09:13:23;;;;;;;9.15;2.50;;;15.20;92.30;;;;;;5078173;28;20042;-48
2022/05/08 09:15:50;;;;;;;7.47;3.08;;;14.90;92.60;;;;;;5080844;28;20058;-49
2022/05/08 09:18:15;;;;;;;14.10;2.50;;;15.20;92.90;;;;;;5076530;28;20071;-49
2022/05/08 09:20:43;;;;;;;11.25;2.67;;;15.40;93.40;;;;;;5076740;28;20044;-49
2022/05/08 09:23:20;;;;;;;8.38;2.50;;;15.40;93.60;;;;;;5071499;28;20622;-49
2022/05/08 09:25:52;;;;;;;11.90;2.58;;;15.50;93.50;;;;;;5078651;28;20064;-50
2022/05/08 09:28:25;;;;;;;10.70;2.75;;;15.60;93.20;;;;;;5081417;28;20040;-52
2022/05/08 09:30:57;;;;;;;11.32;2.60;;;15.50;92.20;;;;;;5077939;28;20048;-49
2022/05/08 09:33:27;;;;;;;10.73;2.40;;;15.80;93.70;;;;;;5079185;28;20056;-50
2022/05/08 09:35:54;;;;;;;13.23;2.83;;;16.00;92.70;;;;;;5080911;28;20048;-50
2022/05/08 09:38:20;;;;;;;7.65;3.22;;;16.00;91.90;;;;;;5078106;28;20137;-49
2022/05/08 09:41:03;;;;;;;7.25;2.38;;;16.10;92.60;;;;;;5078688;28;20068;-50
2022/05/08 09:43:29;;;;;;;11.18;2.80;;;16.30;92.20;;;;;;5071631;28;20060;-47
2022/05/08 09:45:59;;;;;;;13.40;2.97;;;16.30;94.40;;;;;;5067577;28;20094;-51
2022/05/08 09:48:35;;;;;;;12.43;2.53;;;15.80;92.30;;;;;;5081373;28;20082;-49
2022/05/08 09:51:08;;;;;;;14.32;3.45;;;15.50;93.50;;;;;;5064277;28;20048;-49
2022/05/08 09:53:36;;;;;;;9.85;2.63;;;15.30;93.30;;;;;;5068259;28;20056;-52
2022/05/08 09:56:05;;;;;;;11.90;2.88;;;15.30;92.70;;;;;;5074219;28;20091;-49
2022/05/08 09:58:31;;;;;;;9.23;2.53;;;15.50;94.00;;;;;;5078126;28;20463;-52
2022/05/08 10:00:57;;;;;;;10.38;3.00;;;15.40;92.20;;;;;;5075146;28;20578;-49
2022/05/08 10:03:24;;;;;;;12.45;2.60;;;15.70;94.50;;;;;;5080696;28;20443;-49
2022/05/08 10:05:51;;;;;;;12.18;2.42;;;15.50;93.20;;;;;;5075301;28;20044;-49
2022/05/08 10:08:19;;;;;;;13.40;2.75;;;15.80;93.80;;;;;;5079141;28;20047;-49
2022/05/08 10:14:05;;;;;;;7.60;2.30;;;16.00;93.50;;;;;;5077439;28;20054;-49
2022/05/08 10:16:57;;;;;;;14.23;3.55;;;16.20;93.40;;;;;;5080297;28;20052;-49
2022/05/08 10:19:26;;;;;;;13.15;4.10;;;16.30;93.00;;;;;;5069954;28;20414;-51
2022/05/08 10:24:27;;;;;;;30.70;13.07;;;16.10;91.90;;;;;;5073292;28;20509;-53
2022/05/08 10:27:13;;;;;;;31.60;12.65;;;16.40;94.00;;;;;;5073772;28;20066;-52
2022/05/08 10:29:39;;;;;;;14.45;4.28;;;16.60;91.60;;;;;;5076640;28;20055;-53
2022/05/08 10:32:14;;;;;;;13.85;3.92;;;16.30;91.80;;;;;;5082422;28;20040;-50
2022/05/08 10:34:41;;;;;;;10.43;3.00;;;16.30;92.80;;;;;;5071049;28;20487;-49
2022/05/08 10:37:12;;;;;;;15.15;3.75;;;16.00;91.60;;;;;;5079255;28;20047;-51
2022/05/08 10:39:41;;;;;;;12.20;3.13;;;16.10;93.80;;;;;;5076586;28;20465;-50
2022/05/08 10:42:33;;;;;;;15.50;3.15;;;15.90;91.90;;;;;;5079064;28;20125;-53
2022/05/08 10:45:02;;;;;;;10.30;2.93;;;16.10;92.90;;;;;;5068219;28;20044;-46
2022/05/08 10:47:37;;;;;;;12.77;2.90;;;16.00;91.90;;;;;;5081438;28;20052;-49
2022/05/08 10:50:04;;;;;;;9.70;2.88;;;16.10;92.50;;;;;;5071503;28;20091;-47
2022/05/08 10:52:33;;;;;;;11.07;2.55;;;16.10;92.50;;;;;;5067657;28;20056;-50
2022/05/08 10:55:01;;;;;;;9.05;2.80;;;16.00;91.50;;;;;;5072215;28;20144;-51
2022/05/08 10:57:35;;;;;;;11.95;3.58;;;16.00;92.40;;;;;;5071237;28;20499;-49
2022/05/08 11:00:07;;;;;;;9.43;2.47;;;15.80;90.80;;;;;;5077190;28;20118;-50
2022/05/08 11:02:43;;;;;;;8.73;2.70;;;15.80;90.60;;;;;;5063535;28;20481;-46
2022/05/08 11:05:29;;;;;;;7.20;2.35;;;15.90;89.40;;;;;;5075374;28;20048;-48
2022/05/08 11:08:03;;;;;;;9.63;2.47;;;16.00;90.80;;;;;;5069781;28;20609;-50
2022/05/08 11:10:33;;;;;;;7.13;2.38;;;16.30;91.20;;;;;;5076011;28;20411;-49
2022/05/08 11:13:18;;;;;;;8.77;2.78;;;16.10;90.10;;;;;;5077359;28;20478;-52
2022/05/08 11:15:44;;;;;;;14.77;3.47;;;16.00;89.50;;;;;;5077913;28;20167;-51
2022/05/08 11:18:11;;;;;;;6.97;2.58;;;15.90;90.80;;;;;;5077622;28;20044;-50
2022/05/08 11:20:43;;;;;;;11.75;2.65;;;15.60;89.30;;;;;;5073265;28;20059;-49
2022/05/08 11:23:44;;;;;;;11.40;3.60;;;15.60;91.70;;;;;;5071242;28;20047;-51
2022/05/08 11:26:14;;;;;;;11.68;2.92;;;15.90;91.30;;;;;;5075633;28;20056;-51
2022/05/08 11:28:50;;;;;;;10.30;2.80;;;15.80;90.90;;;;;;5076050;28;20051;-50
2022/05/08 11:31:28;;;;;;;13.90;2.95;;;15.80;91.10;;;;;;5077108;28;20511;-46
2022/05/08 11:36:40;;;;;;;9.60;2.80;;;16.00;92.70;;;;;;5082384;28;20082;-50
2022/05/08 11:39:13;;;;;;;14.45;2.97;;;15.90;92.20;;;;;;5070805;28;20070;-52
2022/05/08 11:41:46;;;;;;;9.85;2.58;;;16.10;91.70;;;;;;5079866;28;20055;-51
2022/05/08 11:44:15;;;;;;;;;;;16.30;90.80;;;;;;5080405;28;20087;-49
2022/05/08 11:46:41;;;;;;;10.80;2.95;;;16.40;91.80;;;;;;5080102;28;20002;-53
2022/05/08 11:49:30;;;;;;;8.13;2.88;;;16.20;90.90;;;;;;5071628;28;20048;-53
2022/05/08 11:52:21;;;;;;;7.53;2.45;;;16.10;90.00;;;;;;5069459;28;20051;-46
2022/05/08 11:55:01;;;;;;;6.85;2.88;;;16.30;91.80;;;;;;5075809;28;20048;-49
2022/05/08 11:57:28;;;;;;;10.20;2.85;;;16.30;91.10;;;;;;5067166;28;20056;-53
2022/05/08 12:00:05;;;;;;;7.72;2.38;;;16.30;91.10;;;;;;5081299;28;20498;-47
2022/05/08 12:02:41;;;;;;;10.98;2.92;;;16.20;92.40;;;;;;5076639;28;20043;-51
2022/05/08 12:05:22;;;;;;;7.28;2.95;;;16.10;90.60;;;;;;5080038;28;20554;-50
2022/05/08 12:07:49;;;;;;;12.68;2.90;;;16.30;90.30;;;;;;5078186;28;20414;-50
2022/05/08 12:10:16;;;;;;;9.30;2.63;;;15.90;90.20;;;;;;5079441;28;20146;-52
2022/05/08 12:12:42;;;;;;;12.70;3.50;;;15.90;90.20;;;;;;5076628;28;20097;-51
2022/05/08 12:15:09;;;;;;;8.35;3.00;;;16.10;91.00;;;;;;5067055;28;20117;-48
2022/05/08 12:17:43;;;;;;;8.93;2.80;;;16.00;91.60;;;;;;5066011;28;20574;-49
2022/05/08 12:20:19;;;;;;;11.00;3.15;;;16.00;89.20;;;;;;5077850;28;20469;-49
2022/05/08 12:22:57;;;;;;;12.57;3.25;;;16.10;91.40;;;;;;5073649;28;20411;-47
2022/05/08 12:25:23;;;;;;;8.25;2.72;;;16.10;90.50;;;;;;5076799;28;20083;-50
2022/05/08 12:27:48;;;;;;;10.25;2.92;;;16.10;90.70;;;;;;5080530;28;20590;-50
2022/05/08 12:30:15;;;;;;;15.75;4.03;;;16.40;90.90;;;;;;5077635;28;20370;-50
2022/05/08 12:32:41;;;;;;;10.88;2.50;;;16.30;90.60;;;;;;5079491;28;20421;-49
2022/05/08 12:35:08;;;;;;;9.23;3.00;;;16.10;90.80;;;;;;5079307;28;20386;-50
2022/05/08 12:37:34;;;;;;;10.40;3.22;;;16.30;90.20;;;;;;5079122;28;20498;-49
2022/05/08 12:40:00;;;;;;;11.85;3.13;;;16.50;91.80;;;;;;5079691;28;20097;-52
2022/05/08 12:42:26;;;;;;;8.38;2.60;;;16.70;91.70;;;;;;5077220;28;20110;-48
2022/05/08 12:44:52;;;;;;;8.75;2.58;;;16.80;91.40;;;;;;5066819;28;20455;-46
2022/05/08 12:47:19;;;;;;;11.38;3.17;;;16.70;90.10;;;;;;5078540;28;20047;-51
2022/05/08 12:49:45;;;;;;;11.98;3.58;;;16.50;90.40;;;;;;5074577;28;20055;-48
2022/05/08 12:52:11;;;;;;;9.45;2.83;;;16.60;90.10;;;;;;5074429;28;20048;-50
2022/05/08 12:54:37;;;;;;;6.55;2.92;;;16.50;89.30;;;;;;5074930;28;20105;-49
2022/05/08 12:57:09;;;;;;;8.88;2.60;;;16.30;87.20;;;;;;5072695;28;20399;-48
2022/05/08 12:59:42;;;;;;;11.10;3.17;;;16.20;84.90;;;;;;5073587;28;20052;-49
2022/05/08 13:02:11;;;;;;;9.38;3.42;;;16.10;87.20;;;;;;5066516;28;20433;-46
2022/05/08 13:04:40;;;;;;;11.77;3.50;;;15.90;86.60;;;;;;5070765;28;20132;-48
2022/05/08 13:07:07;;;;;;;5.85;2.53;;;15.90;87.80;;;;;;5070450;28;20045;-51
2022/05/08 13:09:33;;;;;;;10.07;2.95;;;15.90;87.30;;;;;;5060228;28;20037;-48
2022/05/08 13:12:03;;;;;;;10.32;3.30;;;16.00;88.60;;;;;;5072772;28;20044;-50